リガ の空港の天気 - METARとTAF

リガ国際空港 ( EVRA / RIX ) - ラトビア リガ
飛行場実況気象(Metar)
観測時間01/16 20:20 EET (01/16 18:20 UTC)
風向・風速南南西 7m/s
視程10km以上
天気現象弱い雨
全天の4割程度の雲 雲底高度 210m
全天の8割程度の雲 雲底高度 270m
全天を覆う雲 雲底高度 430m
気温1℃
湿度93%
気圧1000hPa
METAREVRA 161820Z 21013KT 9999 -RA SCT007 BKN009 OVC014 01/00 Q1000 NOSIG
過去の天気等 Google飛行場航空写真 Wunderground天気予報

過去48時間のMETAR

飛行場予報(TAF)
発表時間: 1/16 19:09 EET (1/16 17:09 UTC)
予報対象時間: 16日20時 EET ~ 17日20時 EET
風向・風速南南西 6m/s
視程10km以上
全天を覆う雲 雲底高度 270m
16日20時 EET ~ 16日22時 EET に一時的に
風向・風速南西 8m/s 瞬間風速 15m/s
視程3000m
天気現象雨雪
全天の8割程度の雲 雲底高度 120m
16日21時 EET ~ 16日22時 EET に徐々に
視程5000m
天気現象弱い雨雪
16日22時 EET ~ 17日6時 EET に一時的に
視程1500m
天気現象雪雨
全天の8割程度の雲 雲底高度 120m
17日6時 EET から
風向・風速北西 9m/s 瞬間風速 14m/s
視程8000m
全天を覆う雲 雲底高度 460m
17日6時 EET ~ 17日11時 EET に一時的に
風向・風速西北西 10m/s 瞬間風速 18m/s
視程1200m
天気現象しゅう雪雨
全天の8割程度の雲 雲底高度 60m
全天の8割程度の積乱雲 雲底高度 270m
17日6時 EET から 確率 40% で
天気現象雷あられ
17日11時 EET ~ 17日17時 EET に一時的に
風向・風速北北西 13m/s 瞬間風速 21m/s
視程1500m
天気現象しゅう雪
全天の8割程度の積乱雲 雲底高度 270m
17日17時 EET ~ 17日20時 EET に一時的に
風向・風速北北西 13m/s 瞬間風速 21m/s
TAF EVRA 161709Z 1618/1718 20012KT 9999 OVC009
TEMPO 1618/1620 22015G30KT 3000 RASN BKN004
BECMG 1619/1620 5000 -RASN
TEMPO 1620/1704 1500 SNRA BKN004
FM170400 31018G28KT 8000 OVC015
TEMPO 1704/1709 30020G35KT 1200 SHSNRA BKN002 BKN009CB
PROB40 1704/1706 TSGS
TEMPO 1709/1715 34025G40KT 1500 SHSN BKN009CB
TEMPO 1715/1718 34025G40KT